createdAt,value
2022-12-05T00:02:30.321Z,13.43
2022-12-05T00:05:23.244Z,17.08
2022-12-05T00:08:16.696Z,13.63
2022-12-05T00:11:14.324Z,15.18
2022-12-05T00:14:10.275Z,15.75
2022-12-05T00:17:03.512Z,12.45
2022-12-05T00:19:57.019Z,12.95
2022-12-05T00:22:50.027Z,12.70
2022-12-05T00:25:43.326Z,12.27
2022-12-05T00:28:37.155Z,11.85
2022-12-05T00:31:32.021Z,13.80
2022-12-05T00:34:26.186Z,13.45
2022-12-05T00:37:19.381Z,12.43
2022-12-05T00:40:12.554Z,11.77
2022-12-05T00:43:05.231Z,12.63
2022-12-05T00:46:01.400Z,13.70
2022-12-05T00:48:56.784Z,11.35
2022-12-05T00:51:50.378Z,12.77
2022-12-05T00:54:43.664Z,13.55
2022-12-05T00:57:37.334Z,15.13
2022-12-05T01:00:30.713Z,13.18
2022-12-05T01:03:24.743Z,12.65
2022-12-05T01:06:19.969Z,12.23
2022-12-05T01:09:15.985Z,12.43
2022-12-05T01:12:09.684Z,12.38
2022-12-05T01:15:03.200Z,11.48
2022-12-05T01:17:56.585Z,11.88
2022-12-05T01:20:49.963Z,11.77
2022-12-05T01:23:44.963Z,11.93
2022-12-05T01:26:38.589Z,10.68
2022-12-05T01:29:31.364Z,13.85
2022-12-05T01:32:24.251Z,11.10
2022-12-05T01:35:17.981Z,10.75
2022-12-05T01:38:12.592Z,11.60
2022-12-05T01:41:08.627Z,13.30
2022-12-05T01:44:04.697Z,10.35
2022-12-05T01:46:58.357Z,11.15
2022-12-05T01:49:51.261Z,11.55
2022-12-05T01:52:44.270Z,11.20
2022-12-05T01:55:38.318Z,12.00
2022-12-05T01:58:36.920Z,11.35
2022-12-05T02:01:30.138Z,12.73
2022-12-05T02:04:23.717Z,12.43
2022-12-05T02:07:17.897Z,12.02
2022-12-05T02:10:12.393Z,12.90
2022-12-05T02:13:18.161Z,11.23
2022-12-05T02:16:24.450Z,12.50
2022-12-05T02:19:52.752Z,11.52
2022-12-05T02:23:15.499Z,11.98
2022-12-05T02:26:45.689Z,11.73
2022-12-05T02:30:06.701Z,11.95
2022-12-05T02:33:09.685Z,13.57
2022-12-05T02:36:08.712Z,11.48
2022-12-05T02:39:07.516Z,12.20
2022-12-05T02:42:06.678Z,11.98
2022-12-05T02:45:07.292Z,12.48
2022-12-05T02:48:01.905Z,11.27
2022-12-05T02:51:02.131Z,12.73
2022-12-05T02:53:58.683Z,13.02
2022-12-05T02:56:54.047Z,12.98
2022-12-05T02:59:47.758Z,12.02
2022-12-05T03:02:45.360Z,13.88
2022-12-05T03:05:44.107Z,13.85
2022-12-05T03:08:40.918Z,12.05
2022-12-05T03:11:38.017Z,14.27
2022-12-05T03:14:37.424Z,13.57
2022-12-05T03:17:36.397Z,11.70
2022-12-05T03:20:35.753Z,13.30
2022-12-05T03:23:34.157Z,12.88
2022-12-05T03:26:38.522Z,13.23
2022-12-05T03:29:37.532Z,13.50
2022-12-05T03:32:38.517Z,14.27
2022-12-05T03:35:38.558Z,13.95
2022-12-05T03:38:36.040Z,13.55
2022-12-05T03:41:39.259Z,14.25
2022-12-05T03:44:38.336Z,12.90
2022-12-05T03:47:39.191Z,13.60
2022-12-05T03:50:38.474Z,15.43
2022-12-05T03:53:36.405Z,15.65
2022-12-05T03:56:35.794Z,15.93
2022-12-05T03:59:35.723Z,12.63
2022-12-05T04:02:34.113Z,13.57
2022-12-05T04:05:31.246Z,13.15
2022-12-05T04:08:29.950Z,13.40
2022-12-05T04:11:26.727Z,13.65
2022-12-05T04:14:26.117Z,14.10
2022-12-05T04:17:23.638Z,14.88
2022-12-05T04:20:42.226Z,12.60
2022-12-05T04:23:37.027Z,13.80
2022-12-05T04:26:32.496Z,13.02
2022-12-05T04:29:30.329Z,14.70
2022-12-05T04:32:27.721Z,13.05
2022-12-05T04:35:25.523Z,16.02
2022-12-05T04:38:24.220Z,14.65
2022-12-05T04:41:23.646Z,14.52
2022-12-05T04:44:22.969Z,14.00
2022-12-05T04:47:20.114Z,13.45
2022-12-05T04:50:14.934Z,14.77
2022-12-05T04:53:12.223Z,13.93
2022-12-05T04:56:06.714Z,14.55
2022-12-05T04:59:01.296Z,13.63
2022-12-05T05:01:59.261Z,14.35
2022-12-05T05:04:56.241Z,15.68
2022-12-05T05:07:51.342Z,13.45
2022-12-05T05:10:50.886Z,15.05
2022-12-05T05:13:44.133Z,14.38
2022-12-05T05:16:41.328Z,15.05
2022-12-05T05:19:38.075Z,14.02
2022-12-05T05:22:31.516Z,15.18
2022-12-05T05:25:25.376Z,13.50
2022-12-05T05:28:18.504Z,15.10
2022-12-05T05:31:11.618Z,16.77
2022-12-05T05:34:09.646Z,14.65
2022-12-05T05:37:03.497Z,14.55
2022-12-05T05:39:56.692Z,16.20
2022-12-05T05:42:51.716Z,14.55
2022-12-05T05:45:44.290Z,14.52
2022-12-05T05:48:43.339Z,14.63
2022-12-05T05:51:36.472Z,13.85
2022-12-05T05:54:29.593Z,11.68
2022-12-05T05:57:22.653Z,14.45
2022-12-05T06:00:16.881Z,15.38
2022-12-05T06:03:09.447Z,15.32
2022-12-05T06:06:07.179Z,14.57
2022-12-05T06:09:00.431Z,15.68
2022-12-05T06:11:53.747Z,16.60
2022-12-05T06:14:48.826Z,14.70
2022-12-05T06:17:41.585Z,17.08
2022-12-05T06:20:34.591Z,15.65
2022-12-05T06:23:29.338Z,16.60
2022-12-05T06:26:23.570Z,16.33
2022-12-05T06:29:16.383Z,17.08
2022-12-05T06:32:10.015Z,17.08
2022-12-05T06:35:07.872Z,15.85
2022-12-05T06:38:00.740Z,17.05
2022-12-05T06:40:54.668Z,15.93
2022-12-05T06:43:48.259Z,15.32
2022-12-05T06:46:41.573Z,14.88
2022-12-05T06:49:38.016Z,17.25
2022-12-05T06:52:31.546Z,16.75
2022-12-05T06:55:24.933Z,16.58
2022-12-05T06:58:18.934Z,13.38
2022-12-05T07:18:53.319Z,12.90
2022-12-05T07:21:46.718Z,11.38
2022-12-05T07:24:39.909Z,10.43
2022-12-05T07:27:32.693Z,10.95
2022-12-05T07:30:28.813Z,10.45
2022-12-05T07:33:21.396Z,10.05
2022-12-05T07:36:17.564Z,10.57
2022-12-05T07:39:11.291Z,10.23
2022-12-05T07:42:04.541Z,9.73
2022-12-05T07:44:57.796Z,9.63
2022-12-05T07:47:50.692Z,10.93
2022-12-05T07:50:43.847Z,9.00
2022-12-05T07:53:39.312Z,12.02
2022-12-05T07:56:32.810Z,13.73
2022-12-05T07:59:26.024Z,13.20
2022-12-05T08:02:20.081Z,12.10
2022-12-05T08:05:13.678Z,8.77
2022-12-05T08:08:07.152Z,8.95
2022-12-05T08:11:06.206Z,9.43
2022-12-05T08:13:59.796Z,9.18
2022-12-05T08:16:52.867Z,9.02
2022-12-05T08:19:45.794Z,10.27
2022-12-05T08:22:38.905Z,13.82
2022-12-05T08:25:31.514Z,9.23
2022-12-05T08:28:26.281Z,11.13
2022-12-05T08:31:21.158Z,8.10
2022-12-05T08:34:15.699Z,8.43
2022-12-05T08:37:08.672Z,10.20
2022-12-05T08:40:02.441Z,8.68
2022-12-05T08:42:55.417Z,8.43
2022-12-05T08:45:52.917Z,7.07
2022-12-05T08:48:45.583Z,9.98
2022-12-05T08:51:38.926Z,7.50
2022-12-05T08:54:31.853Z,6.38
2022-12-05T08:57:24.951Z,8.23
2022-12-05T09:00:18.982Z,6.85
2022-12-05T09:03:13.565Z,8.32
2022-12-05T09:06:08.046Z,6.40
2022-12-05T09:09:02.579Z,7.90
2022-12-05T09:11:55.761Z,8.05
2022-12-05T09:14:48.498Z,7.75
2022-12-05T09:17:41.877Z,6.97
2022-12-05T09:20:36.442Z,6.97
2022-12-05T09:23:29.793Z,8.27
2022-12-05T09:26:24.759Z,8.27
2022-12-05T09:29:18.439Z,8.50
2022-12-05T09:32:12.400Z,9.00
2022-12-05T09:35:05.935Z,9.35
2022-12-05T09:37:59.844Z,7.55
2022-12-05T09:41:01.442Z,6.72
2022-12-05T09:44:03.831Z,6.32
2022-12-05T09:47:00.942Z,8.40
2022-12-05T09:49:58.515Z,9.88
2022-12-05T09:53:03.220Z,12.63
2022-12-05T09:56:03.158Z,10.65
2022-12-05T09:58:58.777Z,7.75
2022-12-05T10:01:58.563Z,10.18
2022-12-05T10:05:01.285Z,6.00
2022-12-05T10:08:02.015Z,7.15
2022-12-05T10:11:02.986Z,7.63
2022-12-05T10:14:03.736Z,8.60
2022-12-05T10:16:59.362Z,7.63
2022-12-05T10:19:55.406Z,6.95
2022-12-05T10:22:54.319Z,6.38
2022-12-05T10:25:49.509Z,6.10
2022-12-05T10:28:51.228Z,6.22
2022-12-05T10:31:48.328Z,6.97
2022-12-05T10:34:43.214Z,6.00
2022-12-05T10:37:37.893Z,5.43
2022-12-05T10:40:38.772Z,6.55
2022-12-05T10:43:34.600Z,6.70
2022-12-05T10:46:29.401Z,7.30
2022-12-05T10:49:24.563Z,5.95
2022-12-05T10:52:18.263Z,11.00
2022-12-05T10:55:17.005Z,5.28
2022-12-05T10:58:17.239Z,6.63
2022-12-05T11:01:15.934Z,9.70
2022-12-05T11:04:23.886Z,6.05
2022-12-05T11:07:27.955Z,5.50
2022-12-05T11:10:26.612Z,7.00
2022-12-05T11:13:26.719Z,13.25
2022-12-05T11:16:25.756Z,7.63
2022-12-05T11:19:27.574Z,7.50
2022-12-05T11:22:22.034Z,5.38
2022-12-05T11:25:26.995Z,6.28
2022-12-05T11:28:32.528Z,5.40
2022-12-05T11:31:29.583Z,6.05
2022-12-05T11:34:28.432Z,5.40
2022-12-05T11:37:26.448Z,4.47
2022-12-05T11:40:30.105Z,4.93
2022-12-05T11:43:45.529Z,7.28
2022-12-05T11:46:53.085Z,6.50
2022-12-05T11:50:06.384Z,5.18
2022-12-05T11:53:18.493Z,5.07
2022-12-05T11:56:22.979Z,4.90
2022-12-05T11:59:42.673Z,5.88
2022-12-05T12:03:00.176Z,4.35
2022-12-05T12:06:08.566Z,5.15
2022-12-05T12:09:20.260Z,6.18
2022-12-05T12:12:20.825Z,5.47
2022-12-05T12:15:30.023Z,5.20
2022-12-05T12:18:43.594Z,3.97
2022-12-05T12:21:51.462Z,6.13
2022-12-05T12:25:07.449Z,4.63
2022-12-05T12:28:11.787Z,4.82
2022-12-05T12:31:23.117Z,5.47
2022-12-05T12:34:33.111Z,5.13
2022-12-05T12:37:36.052Z,4.60
2022-12-05T12:40:35.452Z,6.13
2022-12-05T12:43:54.534Z,5.28
2022-12-05T12:46:53.653Z,5.57
2022-12-05T12:49:56.549Z,4.88
2022-12-05T12:53:23.755Z,5.95
2022-12-05T12:56:29.742Z,6.75
2022-12-05T12:59:45.045Z,7.15
2022-12-05T13:02:42.237Z,6.22
2022-12-05T13:05:40.536Z,7.43
2022-12-05T13:08:41.273Z,8.27
2022-12-05T13:11:38.865Z,6.10
2022-12-05T13:14:34.853Z,5.65
2022-12-05T13:17:28.734Z,6.38
2022-12-05T13:20:24.084Z,6.10
2022-12-05T13:23:20.722Z,5.03
2022-12-05T13:26:15.881Z,6.38
2022-12-05T13:29:20.887Z,6.93
2022-12-05T13:32:28.396Z,5.63
2022-12-05T13:35:51.305Z,7.80
2022-12-05T13:39:02.217Z,6.78
2022-12-05T13:42:16.100Z,7.95
2022-12-05T13:45:16.476Z,5.82
2022-12-05T13:48:21.166Z,7.90
2022-12-05T13:51:23.590Z,7.57
2022-12-05T13:54:21.944Z,7.43
2022-12-05T13:57:48.770Z,5.60
2022-12-05T14:00:41.679Z,6.40
2022-12-05T14:03:58.204Z,6.70
2022-12-05T14:06:58.111Z,6.75
2022-12-05T14:09:53.623Z,6.28
2022-12-05T14:12:54.282Z,6.65
2022-12-05T14:15:48.837Z,5.82
2022-12-05T14:18:48.601Z,5.13
2022-12-05T14:21:47.460Z,4.65
2022-12-05T14:24:51.082Z,7.15
2022-12-05T14:27:50.618Z,4.85
2022-12-05T14:30:59.315Z,6.32
2022-12-05T14:34:06.905Z,6.22
2022-12-05T14:37:04.856Z,5.47
2022-12-05T14:40:00.409Z,6.32
2022-12-05T14:42:57.047Z,5.75
2022-12-05T14:46:00.476Z,5.85
2022-12-05T14:48:56.001Z,4.70
2022-12-05T14:51:57.294Z,6.30
2022-12-05T14:54:52.047Z,5.10
2022-12-05T14:57:48.563Z,6.88
2022-12-05T15:00:47.861Z,4.50
2022-12-05T15:03:53.074Z,5.75
2022-12-05T15:06:50.149Z,3.53
2022-12-05T15:09:52.062Z,7.72
2022-12-05T15:12:49.575Z,10.93
2022-12-05T15:15:46.723Z,6.82
2022-12-05T15:18:45.014Z,6.78
2022-12-05T15:21:43.334Z,4.75
2022-12-05T15:24:39.640Z,4.60
2022-12-05T15:27:33.251Z,5.57
2022-12-05T15:30:27.583Z,5.47
2022-12-05T15:33:20.989Z,4.72
2022-12-05T15:36:15.370Z,7.05
2022-12-05T15:39:23.473Z,4.47
2022-12-05T15:42:17.735Z,4.75
2022-12-05T15:45:23.319Z,5.25
2022-12-05T15:48:22.704Z,5.75
2022-12-05T15:51:18.046Z,7.35
2022-12-05T15:54:14.787Z,5.05
2022-12-05T15:57:16.226Z,5.15
2022-12-05T16:00:17.272Z,6.68
2022-12-05T16:03:15.864Z,4.60
2022-12-05T16:06:15.284Z,4.45
2022-12-05T16:09:15.315Z,4.38
2022-12-05T16:12:25.425Z,7.93
2022-12-05T16:15:23.638Z,6.97
2022-12-05T16:18:27.384Z,5.78
2022-12-05T16:21:38.611Z,4.22
2022-12-05T16:24:40.304Z,4.70
2022-12-05T16:27:35.908Z,6.15
2022-12-05T16:30:30.301Z,6.03
2022-12-05T16:33:23.387Z,5.45
2022-12-05T16:36:16.522Z,6.00
2022-12-05T16:39:19.443Z,5.32
2022-12-05T16:42:25.402Z,3.55
2022-12-05T16:45:39.663Z,4.53
2022-12-05T16:48:33.251Z,4.78
2022-12-05T16:51:27.527Z,4.32
2022-12-05T16:54:21.227Z,3.90
2022-12-05T16:57:16.235Z,4.20
2022-12-05T17:00:15.845Z,6.05
2022-12-05T17:03:33.514Z,4.07
2022-12-05T17:06:27.507Z,4.57
2022-12-05T17:09:21.207Z,4.53
2022-12-05T17:12:25.174Z,4.32
2022-12-05T17:15:21.072Z,5.55
2022-12-05T17:18:17.311Z,4.00
2022-12-05T17:21:15.423Z,3.30
2022-12-05T17:24:09.379Z,3.40
2022-12-05T17:27:02.366Z,4.18
2022-12-05T17:29:55.453Z,4.85
2022-12-05T17:32:50.487Z,4.50
2022-12-05T17:35:44.702Z,4.32
2022-12-05T17:38:38.102Z,4.18
2022-12-05T17:41:31.626Z,4.03
2022-12-05T17:44:25.053Z,3.83
2022-12-05T17:47:18.173Z,3.65
2022-12-05T17:50:16.290Z,4.43
2022-12-05T17:53:14.910Z,4.57
2022-12-05T17:56:09.173Z,3.33
2022-12-05T17:59:07.069Z,4.13
2022-12-05T18:02:00.373Z,4.05
2022-12-05T18:04:53.374Z,4.25
2022-12-05T18:07:48.099Z,3.95
2022-12-05T18:10:42.912Z,3.03
2022-12-05T18:13:37.072Z,4.75
2022-12-05T18:16:30.242Z,4.05
2022-12-05T18:19:23.347Z,3.53
2022-12-05T18:22:18.590Z,4.80
2022-12-05T18:25:14.264Z,3.83
2022-12-05T18:28:07.357Z,5.03
2022-12-05T18:31:18.596Z,2.83
2022-12-05T18:34:12.157Z,3.13
2022-12-05T18:37:05.582Z,4.28
2022-12-05T18:39:59.777Z,3.85
2022-12-05T18:42:54.493Z,3.72
2022-12-05T18:45:56.013Z,3.35
2022-12-05T18:48:49.877Z,3.55
2022-12-05T18:51:43.356Z,4.00
2022-12-05T18:54:36.368Z,3.95
2022-12-05T18:57:29.351Z,4.15
2022-12-05T19:00:23.722Z,4.45
2022-12-05T19:03:17.266Z,5.05
2022-12-05T19:06:14.778Z,3.92
2022-12-05T19:09:15.190Z,3.90
2022-12-05T19:12:08.555Z,3.42
2022-12-05T19:15:02.197Z,3.45
2022-12-05T19:17:56.734Z,4.07
2022-12-05T19:20:51.760Z,3.97
2022-12-05T19:23:45.633Z,3.53
2022-12-05T19:26:39.456Z,3.13
2022-12-05T19:29:32.036Z,3.25
2022-12-05T19:32:25.319Z,2.95
2022-12-05T19:35:19.943Z,2.85
2022-12-05T19:38:13.376Z,3.85
2022-12-05T19:41:08.528Z,2.88
2022-12-05T19:44:01.956Z,2.90
2022-12-05T19:46:55.708Z,4.25
2022-12-05T19:49:49.315Z,2.67
2022-12-05T19:52:43.727Z,4.00
2022-12-05T19:55:37.288Z,5.32
2022-12-05T19:58:32.239Z,5.38
2022-12-05T20:01:27.763Z,3.22
2022-12-05T20:04:21.122Z,3.05
2022-12-05T20:07:14.446Z,2.80
2022-12-05T20:10:09.916Z,4.25
2022-12-05T20:13:12.928Z,2.72
2022-12-05T20:16:18.820Z,4.10
2022-12-05T20:19:13.262Z,3.15
2022-12-05T20:22:06.198Z,2.40
2022-12-05T20:24:59.474Z,3.15
2022-12-05T20:27:53.927Z,2.75
2022-12-05T20:30:47.681Z,4.03
2022-12-05T20:33:42.155Z,2.03
2022-12-05T20:36:36.175Z,2.35
2022-12-05T20:39:29.756Z,3.58
2022-12-05T20:42:23.652Z,3.08
2022-12-05T20:45:19.151Z,3.58
2022-12-05T20:48:12.082Z,2.40
2022-12-05T20:51:06.428Z,2.20
2022-12-05T20:53:59.747Z,2.95
2022-12-05T20:56:53.836Z,2.97
2022-12-05T20:59:47.312Z,2.63
2022-12-05T21:02:41.928Z,3.00
2022-12-05T21:05:35.878Z,3.25
2022-12-05T21:08:29.291Z,3.38
2022-12-05T21:11:23.076Z,3.15
2022-12-05T21:14:16.295Z,2.85
2022-12-05T21:17:09.139Z,3.75
2022-12-05T21:20:04.475Z,3.28
2022-12-05T21:22:57.504Z,2.38
2022-12-05T21:25:50.522Z,3.03
2022-12-05T21:28:44.590Z,3.22
2022-12-05T21:31:40.255Z,3.92
2022-12-05T21:34:33.092Z,3.97
2022-12-05T21:37:27.715Z,3.70
2022-12-05T21:40:22.325Z,3.10
2022-12-05T21:43:16.752Z,2.53
2022-12-05T21:46:10.379Z,2.92
2022-12-05T21:49:03.513Z,2.70
2022-12-05T21:51:56.399Z,2.55
2022-12-05T21:54:51.219Z,2.88
2022-12-05T21:57:44.197Z,2.92
2022-12-05T22:00:37.621Z,3.13
2022-12-05T22:03:30.154Z,2.20
2022-12-05T22:06:23.786Z,5.13
2022-12-05T22:09:17.248Z,2.28
2022-12-05T22:12:12.072Z,4.28
2022-12-05T22:15:06.210Z,2.38
2022-12-05T22:17:59.719Z,3.05
2022-12-05T22:20:56.766Z,2.38
2022-12-05T22:23:51.215Z,2.90
2022-12-05T22:26:44.364Z,3.63
2022-12-05T22:29:39.198Z,2.45
2022-12-05T22:32:34.844Z,2.88
2022-12-05T22:35:28.216Z,2.38
2022-12-05T22:38:21.167Z,2.70
2022-12-05T22:41:16.088Z,3.85
2022-12-05T22:44:09.459Z,3.60
2022-12-05T22:47:03.578Z,2.20
2022-12-05T22:49:57.247Z,1.48
2022-12-05T22:52:50.558Z,2.45
2022-12-05T22:55:43.788Z,2.20
2022-12-05T22:58:38.607Z,3.63
2022-12-05T23:01:35.948Z,1.63
2022-12-05T23:04:31.187Z,1.88
2022-12-05T23:07:24.353Z,2.97
2022-12-05T23:10:17.996Z,2.47
2022-12-05T23:13:11.446Z,2.78
2022-12-05T23:16:08.293Z,1.55
2022-12-05T23:19:03.059Z,1.55
2022-12-05T23:21:57.881Z,2.60
2022-12-05T23:24:51.491Z,1.58
2022-12-05T23:27:44.583Z,2.50
2022-12-05T23:30:37.667Z,1.42
2022-12-05T23:33:30.541Z,2.20
2022-12-05T23:36:23.379Z,1.92
2022-12-05T23:39:19.192Z,2.13
2022-12-05T23:42:15.196Z,2.53
2022-12-05T23:45:09.464Z,3.60
2022-12-05T23:48:04.647Z,2.13
2022-12-05T23:51:00.780Z,2.13
2022-12-05T23:53:56.373Z,2.72
2022-12-05T23:56:51.154Z,3.67
2022-12-05T23:59:44.729Z,2.58
